Chuluota, FL (32766)

5:59 PM EDT on June 02, 2015 (GMT -0400)
Live Oak Reserve | | Change Station
CLOSE
Current Station
Personal Weather Station
Location: Oviedo, FL
Elevation: 52 ft
Nearby Weather Stations

Elev 52 ft 28.63 °N, 81.15 °W | Updated 11 seconds ago

Rain
Rain
71.8 °F
Feels Like 71.8 °F
N
0.0
Wind Variable Wind from South
Gusts 0.0 mph

Today
High -- | Low -- °F
--% Chance of Precip.
Yesterday
High -- | Low -- °F
Precip. -- in
6:26 AM 8:18 PM
Full, 100% visible
Pressure 29.98 in
Visibility 6.0 miles
Clouds Few 5500 ft
Mostly Cloudy 9500 ft
Overcast 11000 ft
Dew Point 70 °F
Humidity 94%
Rainfall 0.00 in
Snow Depth Not available.
UV 1.0 out of 12
Pollen .60 out of 12
Air Quality Not available.
Flu Activity Sporadic
SPECI KSFB 022119Z 13003KT 6SM -RA BR FEW055 BKN095 OVC110 22/19 A2998 RMK AO2 LTG DSNT SW AND NW TSE03 P0005 T02170194

More Conditions Fewer Conditions

Pressure 29.98 in
Visibility 6.0 miles
Clouds Few 5500 ft
Mostly Cloudy 9500 ft
Overcast 11000 ft
Dew Point 70 °F
Humidity 94%
Rainfall 0.00 in
Snow Depth Not available.
UV 1.0 out of 12
Pollen .60 out of 12
Air Quality Not available.
Flu Activity Sporadic
SPECI KSFB 022119Z 13003KT 6SM -RA BR FEW055 BKN095 OVC110 22/19 A2998 RMK AO2 LTG DSNT SW AND NW TSE03 P0005 T02170194

More Conditions Fewer Conditions

Nowcast | as of 4:26 PM EDT on June 2, 2015

Despite cloudiness from ongoing convection over the Gulf of Mexico...numerous showers and storms continue to develop along the East Coast sea breeze as it pushes inland this afternoon. Individual storms will generally move slowly off to the north-northeast at around 5 mph...but overall the focus of activity will continue to shift inland with the sea breeze. However...the offshore component to the wind will keep light to moderate rain with embedded thunderstorms ongoing along the coast into the evening. Heavy rainfall leading to minor flooding of low-lying areas and roadways and frequent lightning will be the main threats with activity into this evening. A few stronger storms may produce small hail and wind gusts to around 50 mph...with the best threat primarily over the interior with any boundary collisions. Additional details...including graphics are available online at: http://www.Srh.NOAA.Gov/mlb/blog.Php

×

10-Day Weather Forecast

×

Almanac

Astronomy

Jun. 02, 2015 Rise Set
Actual Time
Civil Twilight
Nautical Twilight
Astronomical Twilight
Moon
Length of Visible Light
Length of Day
Tomorrow will be .
, % of the Moon is Illuminated

Today's Extremes

State Highs State Lows

Community

WunderPhotos

Upload Photos

1,826,032 photos uploaded!

WunderBlogs® & News

Nearby

Air Quality

  Air Quality AQ Index Pollutant
Not available.

Snow Depth

Station Depth Elevation

Earthquake Activity

City Distance Mag. Time & Date
Minimum magnitude displayed is 2.5.

Coastal Water Temperatures

Place Temperature

Stations

Nearby Weather Stations

Station Location Temp. Windchill Dew Point Humidity Wind Precip. Elev Updated Type